sensor_id;sensor_type;location;lat;lon;timestamp;pressure;altitude;pressure_sealevel;temperature;humidity
56042;BME280;48756;41.374;2.066;2022-09-20T00:00:43;101044.22;;;22.05;86.77
56042;BME280;48756;41.374;2.066;2022-09-20T00:03:10;101040.47;;;22.09;86.05
56042;BME280;48756;41.374;2.066;2022-09-20T00:05:38;101047.34;;;22.13;85.73
56042;BME280;48756;41.374;2.066;2022-09-20T00:08:06;101049.97;;;22.13;86.35
56042;BME280;48756;41.374;2.066;2022-09-20T00:10:33;101050.97;;;21.93;87.29
56042;BME280;48756;41.374;2.066;2022-09-20T00:13:01;101039.38;;;21.61;88.11
56042;BME280;48756;41.374;2.066;2022-09-20T00:15:28;101049.09;;;21.43;89.46
56042;BME280;48756;41.374;2.066;2022-09-20T00:17:54;101041.16;;;21.43;89.68
56042;BME280;48756;41.374;2.066;2022-09-20T00:20:19;101039.00;;;21.51;89.27
56042;BME280;48756;41.374;2.066;2022-09-20T00:22:45;101034.38;;;21.55;89.16
56042;BME280;48756;41.374;2.066;2022-09-20T00:25:15;101044.06;;;21.73;89.36
56042;BME280;48756;41.374;2.066;2022-09-20T00:27:40;101047.25;;;21.80;87.53
56042;BME280;48756;41.374;2.066;2022-09-20T00:30:07;101047.00;;;21.67;88.43
56042;BME280;48756;41.374;2.066;2022-09-20T00:32:33;101046.06;;;21.68;88.41
56042;BME280;48756;41.374;2.066;2022-09-20T00:34:58;101050.91;;;21.94;87.33
56042;BME280;48756;41.374;2.066;2022-09-20T00:37:36;101049.66;;;22.01;88.09
56042;BME280;48756;41.374;2.066;2022-09-20T00:40:03;101046.94;;;21.86;88.02
56042;BME280;48756;41.374;2.066;2022-09-20T00:42:30;101046.94;;;21.86;88.26
56042;BME280;48756;41.374;2.066;2022-09-20T00:45:05;101049.25;;;21.92;86.99
56042;BME280;48756;41.374;2.066;2022-09-20T00:48:10;101043.66;;;21.81;87.98
56042;BME280;48756;41.374;2.066;2022-09-20T00:53:17;101040.25;;;21.79;88.37
56042;BME280;48756;41.374;2.066;2022-09-20T00:55:52;101052.00;;;21.90;88.68
56042;BME280;48756;41.374;2.066;2022-09-20T00:58:20;101044.53;;;21.64;88.87
56042;BME280;48756;41.374;2.066;2022-09-20T01:00:50;101047.34;;;21.78;88.19
56042;BME280;48756;41.374;2.066;2022-09-20T01:03:19;101050.06;;;21.77;87.87
56042;BME280;48756;41.374;2.066;2022-09-20T01:05:48;101048.50;;;21.73;87.97
56042;BME280;48756;41.374;2.066;2022-09-20T01:08:15;101046.00;;;21.69;87.86
56042;BME280;48756;41.374;2.066;2022-09-20T01:10:41;101052.31;;;21.67;87.53
56042;BME280;48756;41.374;2.066;2022-09-20T01:13:07;101051.53;;;21.65;87.84
56042;BME280;48756;41.374;2.066;2022-09-20T01:15:36;101051.22;;;21.54;87.71
56042;BME280;48756;41.374;2.066;2022-09-20T01:18:05;101046.69;;;21.38;88.44
56042;BME280;48756;41.374;2.066;2022-09-20T01:20:35;101049.13;;;21.24;89.51
56042;BME280;48756;41.374;2.066;2022-09-20T01:28:37;101047.78;;;21.34;89.13
56042;BME280;48756;41.374;2.066;2022-09-20T01:31:11;101045.47;;;21.27;88.81
56042;BME280;48756;41.374;2.066;2022-09-20T01:33:51;101043.41;;;21.33;88.46
56042;BME280;48756;41.374;2.066;2022-09-20T01:36:25;101047.94;;;21.49;88.04
56042;BME280;48756;41.374;2.066;2022-09-20T01:41:39;101047.38;;;21.23;89.04
56042;BME280;48756;41.374;2.066;2022-09-20T01:44:16;101052.53;;;20.90;90.77
56042;BME280;48756;41.374;2.066;2022-09-20T01:49:56;101051.81;;;20.68;92.00
56042;BME280;48756;41.374;2.066;2022-09-20T01:55:16;101053.88;;;20.80;92.48
56042;BME280;48756;41.374;2.066;2022-09-20T01:58:06;101052.16;;;20.98;91.21
56042;BME280;48756;41.374;2.066;2022-09-20T02:21:11;101047.06;;;20.74;91.22
56042;BME280;48756;41.374;2.066;2022-09-20T02:45:43;101062.25;;;20.71;90.41
56042;BME280;48756;41.374;2.066;2022-09-20T02:48:13;101067.13;;;20.61;91.16
56042;BME280;48756;41.374;2.066;2022-09-20T02:50:55;101067.63;;;20.69;91.29
56042;BME280;48756;41.374;2.066;2022-09-20T02:56:41;101068.19;;;20.95;89.70
56042;BME280;48756;41.374;2.066;2022-09-20T03:05:05;101068.34;;;21.10;89.49
56042;BME280;48756;41.374;2.066;2022-09-20T03:11:14;101067.47;;;20.72;91.34
56042;BME280;48756;41.374;2.066;2022-09-20T03:19:21;101058.06;;;21.22;89.96
56042;BME280;48756;41.374;2.066;2022-09-20T03:22:06;101063.16;;;21.26;90.60
56042;BME280;48756;41.374;2.066;2022-09-20T03:27:40;101065.63;;;21.31;89.88
56042;BME280;48756;41.374;2.066;2022-09-20T03:42:14;101053.72;;;21.57;89.53
56042;BME280;48756;41.374;2.066;2022-09-20T03:44:58;101053.41;;;21.63;89.68
56042;BME280;48756;41.374;2.066;2022-09-20T03:48:00;101047.78;;;21.69;88.14
56042;BME280;48756;41.374;2.066;2022-09-20T03:56:12;101056.16;;;21.61;87.76
56042;BME280;48756;41.374;2.066;2022-09-20T04:12:07;101054.34;;;21.62;89.44
56042;BME280;48756;41.374;2.066;2022-09-20T04:17:49;101051.78;;;21.60;87.64
56042;BME280;48756;41.374;2.066;2022-09-20T04:20:56;101058.16;;;21.56;88.74
56042;BME280;48756;41.374;2.066;2022-09-20T04:25:54;101061.19;;;21.31;86.93
56042;BME280;48756;41.374;2.066;2022-09-20T04:28:27;101062.19;;;21.29;88.06
56042;BME280;48756;41.374;2.066;2022-09-20T04:30:59;101067.19;;;21.35;87.36
56042;BME280;48756;41.374;2.066;2022-09-20T04:33:35;101061.44;;;21.25;87.87
56042;BME280;48756;41.374;2.066;2022-09-20T04:39:19;101068.53;;;21.25;87.50
56042;BME280;48756;41.374;2.066;2022-09-20T04:47:23;101063.41;;;21.58;82.99
56042;BME280;48756;41.374;2.066;2022-09-20T04:50:22;101064.47;;;21.71;74.98
56042;BME280;48756;41.374;2.066;2022-09-20T04:56:09;101071.06;;;21.98;70.90
56042;BME280;48756;41.374;2.066;2022-09-20T05:24:17;101075.75;;;21.76;80.66
56042;BME280;48756;41.374;2.066;2022-09-20T05:38:42;101083.19;;;22.04;79.75
56042;BME280;48756;41.374;2.066;2022-09-20T05:44:27;101091.91;;;22.23;73.86
56042;BME280;48756;41.374;2.066;2022-09-20T05:52:40;101091.59;;;22.12;64.81
56042;BME280;48756;41.374;2.066;2022-09-20T06:00:16;101092.78;;;22.40;64.68
56042;BME280;48756;41.374;2.066;2022-09-20T06:02:53;101089.22;;;22.41;64.56
56042;BME280;48756;41.374;2.066;2022-09-20T06:11:09;101097.84;;;22.28;63.74
56042;BME280;48756;41.374;2.066;2022-09-20T06:13:48;101100.53;;;22.44;63.30
56042;BME280;48756;41.374;2.066;2022-09-20T06:19:20;101102.19;;;22.47;63.86
56042;BME280;48756;41.374;2.066;2022-09-20T06:21:53;101107.75;;;22.42;64.13
56042;BME280;48756;41.374;2.066;2022-09-20T06:24:35;101105.28;;;22.55;64.82
56042;BME280;48756;41.374;2.066;2022-09-20T06:27:27;101105.28;;;22.55;64.01
56042;BME280;48756;41.374;2.066;2022-09-20T06:29:58;101113.50;;;22.50;63.58
56042;BME280;48756;41.374;2.066;2022-09-20T06:32:24;101109.72;;;22.54;64.42
56042;BME280;48756;41.374;2.066;2022-09-20T06:34:52;101114.00;;;22.24;65.20
56042;BME280;48756;41.374;2.066;2022-09-20T06:37:47;101110.16;;;22.47;65.34
56042;BME280;48756;41.374;2.066;2022-09-20T06:40:45;101116.16;;;22.50;64.39
56042;BME280;48756;41.374;2.066;2022-09-20T06:43:31;101109.06;;;22.34;65.34
56042;BME280;48756;41.374;2.066;2022-09-20T06:45:57;101104.59;;;22.34;65.80
56042;BME280;48756;41.374;2.066;2022-09-20T06:48:22;101115.69;;;22.42;65.75
56042;BME280;48756;41.374;2.066;2022-09-20T06:50:49;101117.25;;;22.46;65.67
56042;BME280;48756;41.374;2.066;2022-09-20T06:53:26;101123.63;;;22.59;65.92
56042;BME280;48756;41.374;2.066;2022-09-20T06:55:52;101122.03;;;22.73;64.31
56042;BME280;48756;41.374;2.066;2022-09-20T06:58:18;101114.13;;;22.88;64.62
56042;BME280;48756;41.374;2.066;2022-09-20T07:00:43;101121.84;;;22.93;64.89
56042;BME280;48756;41.374;2.066;2022-09-20T07:03:09;101121.44;;;23.16;64.65
56042;BME280;48756;41.374;2.066;2022-09-20T07:05:36;101124.69;;;23.21;63.81
56042;BME280;48756;41.374;2.066;2022-09-20T07:08:02;101117.13;;;23.45;62.18
56042;BME280;48756;41.374;2.066;2022-09-20T07:10:28;101124.16;;;23.31;62.95
56042;BME280;48756;41.374;2.066;2022-09-20T07:12:55;101118.75;;;23.48;62.57
56042;BME280;48756;41.374;2.066;2022-09-20T07:15:24;101126.22;;;23.41;63.77
56042;BME280;48756;41.374;2.066;2022-09-20T07:17:49;101122.66;;;23.58;62.06
56042;BME280;48756;41.374;2.066;2022-09-20T07:20:15;101120.84;;;23.59;62.57
56042;BME280;48756;41.374;2.066;2022-09-20T07:22:41;101121.94;;;23.55;62.36
56042;BME280;48756;41.374;2.066;2022-09-20T07:25:07;101114.91;;;23.38;62.97
56042;BME280;48756;41.374;2.066;2022-09-20T07:27:33;101118.16;;;23.43;62.59
56042;BME280;48756;41.374;2.066;2022-09-20T07:29:58;101118.84;;;23.62;63.49
56042;BME280;48756;41.374;2.066;2022-09-20T07:32:24;101116.75;;;23.83;61.47
56042;BME280;48756;41.374;2.066;2022-09-20T07:34:51;101120.38;;;23.82;62.02
56042;BME280;48756;41.374;2.066;2022-09-20T07:37:16;101129.06;;;24.44;60.34
56042;BME280;48756;41.374;2.066;2022-09-20T07:39:44;101129.31;;;24.25;60.61
56042;BME280;48756;41.374;2.066;2022-09-20T07:42:10;101127.19;;;23.56;61.97
56042;BME280;48756;41.374;2.066;2022-09-20T07:44:36;101135.22;;;23.55;63.58
56042;BME280;48756;41.374;2.066;2022-09-20T07:47:05;101132.91;;;24.10;61.48
56042;BME280;48756;41.374;2.066;2022-09-20T07:49:31;101132.09;;;24.24;61.46
56042;BME280;48756;41.374;2.066;2022-09-20T07:51:57;101134.84;;;23.92;62.21
56042;BME280;48756;41.374;2.066;2022-09-20T07:54:23;101144.50;;;23.79;63.06
56042;BME280;48756;41.374;2.066;2022-09-20T07:56:48;101137.00;;;23.86;63.06
56042;BME280;48756;41.374;2.066;2022-09-20T07:59:14;101145.28;;;23.65;63.00
56042;BME280;48756;41.374;2.066;2022-09-20T08:01:41;101149.25;;;24.04;62.08
56042;BME280;48756;41.374;2.066;2022-09-20T08:04:08;101141.53;;;24.43;60.69
56042;BME280;48756;41.374;2.066;2022-09-20T08:06:39;101147.00;;;24.56;60.56
56042;BME280;48756;41.374;2.066;2022-09-20T08:09:06;101141.34;;;24.32;60.63
56042;BME280;48756;41.374;2.066;2022-09-20T08:11:32;101143.34;;;24.29;61.13
56042;BME280;48756;41.374;2.066;2022-09-20T08:14:00;101153.22;;;24.99;58.33
56042;BME280;48756;41.374;2.066;2022-09-20T08:16:27;101149.94;;;25.09;58.47
56042;BME280;48756;41.374;2.066;2022-09-20T08:18:56;101151.56;;;24.97;59.79
56042;BME280;48756;41.374;2.066;2022-09-20T08:21:25;101152.34;;;25.13;57.16
56042;BME280;48756;41.374;2.066;2022-09-20T08:23:51;101157.09;;;25.22;56.99
56042;BME280;48756;41.374;2.066;2022-09-20T08:26:21;101164.78;;;25.41;56.70
56042;BME280;48756;41.374;2.066;2022-09-20T08:28:51;101165.44;;;24.88;59.17
56042;BME280;48756;41.374;2.066;2022-09-20T08:31:19;101165.19;;;24.78;59.35
56042;BME280;48756;41.374;2.066;2022-09-20T08:33:46;101164.66;;;25.43;57.60
56042;BME280;48756;41.374;2.066;2022-09-20T08:36:14;101166.31;;;25.31;56.44
56042;BME280;48756;41.374;2.066;2022-09-20T08:38:40;101164.28;;;25.34;57.84
56042;BME280;48756;41.374;2.066;2022-09-20T08:43:38;101167.66;;;25.92;55.34
56042;BME280;48756;41.374;2.066;2022-09-20T08:46:09;101178.06;;;25.55;57.10
56042;BME280;48756;41.374;2.066;2022-09-20T08:48:37;101173.63;;;25.83;55.33
56042;BME280;48756;41.374;2.066;2022-09-20T08:51:04;101181.69;;;25.54;56.67
56042;BME280;48756;41.374;2.066;2022-09-20T08:53:31;101179.06;;;25.81;55.51
56042;BME280;48756;41.374;2.066;2022-09-20T08:55:58;101176.19;;;25.84;55.92
56042;BME280;48756;41.374;2.066;2022-09-20T08:58:27;101177.38;;;25.80;55.84
56042;BME280;48756;41.374;2.066;2022-09-20T09:00:53;101175.72;;;25.78;55.51
56042;BME280;48756;41.374;2.066;2022-09-20T09:03:23;101178.28;;;25.79;55.77
56042;BME280;48756;41.374;2.066;2022-09-20T09:05:53;101180.31;;;26.03;54.93
56042;BME280;48756;41.374;2.066;2022-09-20T09:08:22;101180.47;;;26.27;55.60
56042;BME280;48756;41.374;2.066;2022-09-20T09:10:57;101182.97;;;26.42;52.85
56042;BME280;48756;41.374;2.066;2022-09-20T09:16:12;101186.44;;;25.63;55.89
56042;BME280;48756;41.374;2.066;2022-09-20T09:18:41;101190.06;;;25.62;55.30
56042;BME280;48756;41.374;2.066;2022-09-20T09:21:08;101188.13;;;25.79;54.17
56042;BME280;48756;41.374;2.066;2022-09-20T09:23:50;101189.06;;;25.78;54.79
56042;BME280;48756;41.374;2.066;2022-09-20T09:26:20;101185.03;;;26.24;54.41
56042;BME280;48756;41.374;2.066;2022-09-20T09:28:46;101186.78;;;26.25;52.77
56042;BME280;48756;41.374;2.066;2022-09-20T09:31:21;101190.50;;;26.75;52.04
56042;BME280;48756;41.374;2.066;2022-09-20T09:33:47;101196.16;;;26.71;51.51
56042;BME280;48756;41.374;2.066;2022-09-20T09:36:15;101187.16;;;26.59;51.11
56042;BME280;48756;41.374;2.066;2022-09-20T09:38:43;101195.81;;;26.50;52.09
56042;BME280;48756;41.374;2.066;2022-09-20T09:41:30;101205.13;;;26.82;51.52
56042;BME280;48756;41.374;2.066;2022-09-20T09:44:20;101195.50;;;26.67;50.56
56042;BME280;48756;41.374;2.066;2022-09-20T09:46:47;101197.75;;;26.21;51.99
56042;BME280;48756;41.374;2.066;2022-09-20T09:49:21;101204.47;;;26.53;52.78
56042;BME280;48756;41.374;2.066;2022-09-20T09:52:18;101203.06;;;26.48;52.26
56042;BME280;48756;41.374;2.066;2022-09-20T09:54:52;101198.28;;;26.13;53.11
56042;BME280;48756;41.374;2.066;2022-09-20T09:57:45;101197.97;;;26.18;52.50
56042;BME280;48756;41.374;2.066;2022-09-20T10:00:22;101196.66;;;26.38;52.17
56042;BME280;48756;41.374;2.066;2022-09-20T10:03:37;101194.31;;;26.84;50.91
56042;BME280;48756;41.374;2.066;2022-09-20T10:11:18;101193.13;;;26.37;52.99
56042;BME280;48756;41.374;2.066;2022-09-20T10:17:18;101189.72;;;26.99;50.54
56042;BME280;48756;41.374;2.066;2022-09-20T10:22:57;101184.91;;;26.91;49.70
56042;BME280;48756;41.374;2.066;2022-09-20T10:25:52;101186.00;;;27.63;48.42
56042;BME280;48756;41.374;2.066;2022-09-20T10:36:54;101195.63;;;26.78;51.07
56042;BME280;48756;41.374;2.066;2022-09-20T10:39:27;101188.22;;;26.82;51.71
56042;BME280;48756;41.374;2.066;2022-09-20T10:45:11;101204.22;;;27.33;50.33
56042;BME280;48756;41.374;2.066;2022-09-20T10:50:50;101199.13;;;28.14;48.12
56042;BME280;48756;41.374;2.066;2022-09-20T10:56:43;101191.59;;;28.54;47.97
56042;BME280;48756;41.374;2.066;2022-09-20T11:02:38;101185.53;;;27.93;48.85
56042;BME280;48756;41.374;2.066;2022-09-20T11:05:22;101195.97;;;28.20;49.32
56042;BME280;48756;41.374;2.066;2022-09-20T11:08:18;101193.59;;;27.81;49.50
56042;BME280;48756;41.374;2.066;2022-09-20T11:16:33;101188.94;;;27.71;50.33
56042;BME280;48756;41.374;2.066;2022-09-20T11:19:22;101186.25;;;27.35;49.79
56042;BME280;48756;41.374;2.066;2022-09-20T11:22:04;101184.13;;;27.27;51.22
56042;BME280;48756;41.374;2.066;2022-09-20T11:24:45;101184.31;;;27.37;50.71
56042;BME280;48756;41.374;2.066;2022-09-20T11:27:17;101182.31;;;28.12;49.39
56042;BME280;48756;41.374;2.066;2022-09-20T11:29:55;101176.56;;;28.41;47.45
56042;BME280;48756;41.374;2.066;2022-09-20T11:32:41;101180.09;;;27.22;50.68
56042;BME280;48756;41.374;2.066;2022-09-20T11:37:41;101172.38;;;27.90;49.71
56042;BME280;48756;41.374;2.066;2022-09-20T11:42:58;101163.84;;;28.78;46.86
56042;BME280;48756;41.374;2.066;2022-09-20T11:45:26;101160.56;;;28.85;46.46
56042;BME280;48756;41.374;2.066;2022-09-20T11:47:59;101164.88;;;28.06;48.01
56042;BME280;48756;41.374;2.066;2022-09-20T11:54:06;101159.28;;;28.10;47.42
56042;BME280;48756;41.374;2.066;2022-09-20T11:56:40;101147.34;;;28.71;46.94
56042;BME280;48756;41.374;2.066;2022-09-20T11:59:39;101153.22;;;28.19;47.70
56042;BME280;48756;41.374;2.066;2022-09-20T12:02:51;101160.16;;;28.56;48.05
56042;BME280;48756;41.374;2.066;2022-09-20T12:05:28;101146.28;;;28.85;47.07
56042;BME280;48756;41.374;2.066;2022-09-20T12:07:59;101154.69;;;28.80;46.07
56042;BME280;48756;41.374;2.066;2022-09-20T12:10:29;101142.38;;;28.20;48.07
56042;BME280;48756;41.374;2.066;2022-09-20T12:13:02;101146.13;;;28.06;48.70
56042;BME280;48756;41.374;2.066;2022-09-20T12:15:35;101137.22;;;28.30;47.48
56042;BME280;48756;41.374;2.066;2022-09-20T12:28:51;101136.41;;;28.52;46.81
56042;BME280;48756;41.374;2.066;2022-09-20T12:39:26;101123.91;;;28.28;48.71
56042;BME280;48756;41.374;2.066;2022-09-20T12:44:37;101115.34;;;28.12;48.74
56042;BME280;48756;41.374;2.066;2022-09-20T12:47:17;101111.81;;;28.12;49.68
56042;BME280;48756;41.374;2.066;2022-09-20T12:52:39;101109.69;;;28.50;47.54
56042;BME280;48756;41.374;2.066;2022-09-20T13:00:47;101093.97;;;28.57;47.20
56042;BME280;48756;41.374;2.066;2022-09-20T13:03:41;101091.44;;;28.89;45.94
56042;BME280;48756;41.374;2.066;2022-09-20T13:08:59;101092.31;;;27.74;50.15
56042;BME280;48756;41.374;2.066;2022-09-20T13:11:46;101102.16;;;27.74;50.10
56042;BME280;48756;41.374;2.066;2022-09-20T13:14:29;101091.66;;;27.95;49.76
56042;BME280;48756;41.374;2.066;2022-09-20T13:17:25;101088.47;;;27.90;49.94
56042;BME280;48756;41.374;2.066;2022-09-20T13:19:53;101082.81;;;28.17;48.77
56042;BME280;48756;41.374;2.066;2022-09-20T13:22:39;101091.53;;;28.31;48.80
56042;BME280;48756;41.374;2.066;2022-09-20T13:25:16;101082.56;;;28.09;50.04
56042;BME280;48756;41.374;2.066;2022-09-20T13:28:05;101079.03;;;28.08;48.48
56042;BME280;48756;41.374;2.066;2022-09-20T13:30:31;101078.88;;;27.87;49.08
56042;BME280;48756;41.374;2.066;2022-09-20T13:33:23;101072.66;;;28.33;47.79
56042;BME280;48756;41.374;2.066;2022-09-20T13:35:53;101065.78;;;28.29;48.08
56042;BME280;48756;41.374;2.066;2022-09-20T13:38:22;101067.22;;;28.22;48.88
56042;BME280;48756;41.374;2.066;2022-09-20T13:40:50;101069.00;;;27.99;50.25
56042;BME280;48756;41.374;2.066;2022-09-20T13:43:43;101068.28;;;28.54;47.74
56042;BME280;48756;41.374;2.066;2022-09-20T13:46:41;101066.97;;;28.14;49.67
56042;BME280;48756;41.374;2.066;2022-09-20T13:49:18;101056.75;;;28.19;48.81
56042;BME280;48756;41.374;2.066;2022-09-20T13:51:49;101059.72;;;28.27;48.87
56042;BME280;48756;41.374;2.066;2022-09-20T13:54:19;101051.91;;;27.54;50.74
56042;BME280;48756;41.374;2.066;2022-09-20T13:56:46;101067.75;;;27.81;49.51
56042;BME280;48756;41.374;2.066;2022-09-20T13:59:13;101052.28;;;27.49;50.85
56042;BME280;48756;41.374;2.066;2022-09-20T14:01:47;101059.06;;;27.42;50.22
56042;BME280;48756;41.374;2.066;2022-09-20T14:04:15;101049.53;;;27.38;50.76
56042;BME280;48756;41.374;2.066;2022-09-20T14:06:42;101056.16;;;27.69;51.13
56042;BME280;48756;41.374;2.066;2022-09-20T14:09:20;101054.72;;;27.76;50.35
56042;BME280;48756;41.374;2.066;2022-09-20T14:11:48;101057.38;;;27.65;50.02
56042;BME280;48756;41.374;2.066;2022-09-20T14:14:14;101056.00;;;28.05;49.76
56042;BME280;48756;41.374;2.066;2022-09-20T14:16:42;101058.03;;;28.37;49.43
56042;BME280;48756;41.374;2.066;2022-09-20T14:19:16;101055.47;;;28.47;48.93
56042;BME280;48756;41.374;2.066;2022-09-20T14:21:43;101053.09;;;28.09;49.81
56042;BME280;48756;41.374;2.066;2022-09-20T14:26:41;101059.63;;;27.10;53.14
56042;BME280;48756;41.374;2.066;2022-09-20T14:32:03;101059.94;;;26.44;54.66
56042;BME280;48756;41.374;2.066;2022-09-20T14:34:30;101058.66;;;26.62;53.51
56042;BME280;48756;41.374;2.066;2022-09-20T14:37:05;101053.19;;;27.13;53.10
56042;BME280;48756;41.374;2.066;2022-09-20T14:39:31;101050.69;;;27.23;52.25
56042;BME280;48756;41.374;2.066;2022-09-20T14:41:57;101065.22;;;26.82;53.72
56042;BME280;48756;41.374;2.066;2022-09-20T14:44:31;101056.13;;;26.97;53.32
56042;BME280;48756;41.374;2.066;2022-09-20T14:46:57;101046.81;;;27.27;53.30
56042;BME280;48756;41.374;2.066;2022-09-20T14:51:50;101054.16;;;27.12;53.17
56042;BME280;48756;41.374;2.066;2022-09-20T14:56:50;101058.84;;;26.72;54.58
56042;BME280;48756;41.374;2.066;2022-09-20T15:02:00;101055.44;;;26.32;56.38
56042;BME280;48756;41.374;2.066;2022-09-20T15:04:28;101054.25;;;25.98;57.07
56042;BME280;48756;41.374;2.066;2022-09-20T15:07:00;101059.38;;;25.88;58.03
56042;BME280;48756;41.374;2.066;2022-09-20T15:09:26;101049.66;;;26.76;55.66
56042;BME280;48756;41.374;2.066;2022-09-20T15:12:06;101049.25;;;26.57;54.58
56042;BME280;48756;41.374;2.066;2022-09-20T15:14:36;101054.44;;;26.83;54.25
56042;BME280;48756;41.374;2.066;2022-09-20T15:17:05;101055.63;;;26.79;56.23
56042;BME280;48756;41.374;2.066;2022-09-20T15:19:31;101046.84;;;26.77;56.19
56042;BME280;48756;41.374;2.066;2022-09-20T15:21:56;101042.75;;;26.84;55.43
56042;BME280;48756;41.374;2.066;2022-09-20T15:24:22;101032.81;;;27.23;53.67
56042;BME280;48756;41.374;2.066;2022-09-20T15:26:47;101039.69;;;27.14;53.78
56042;BME280;48756;41.374;2.066;2022-09-20T15:29:17;101039.00;;;27.00;55.24
56042;BME280;48756;41.374;2.066;2022-09-20T15:31:43;101043.44;;;26.75;54.94
56042;BME280;48756;41.374;2.066;2022-09-20T15:34:11;101040.09;;;26.35;55.82
56042;BME280;48756;41.374;2.066;2022-09-20T15:36:38;101037.72;;;26.56;56.36
56042;BME280;48756;41.374;2.066;2022-09-20T15:39:04;101042.94;;;26.45;56.31
56042;BME280;48756;41.374;2.066;2022-09-20T15:41:30;101032.47;;;26.42;56.87
56042;BME280;48756;41.374;2.066;2022-09-20T15:43:57;101040.38;;;26.31;56.90
56042;BME280;48756;41.374;2.066;2022-09-20T15:46:24;101040.03;;;25.97;58.85
56042;BME280;48756;41.374;2.066;2022-09-20T15:48:54;101038.00;;;26.01;58.07
56042;BME280;48756;41.374;2.066;2022-09-20T15:51:20;101026.06;;;25.93;58.82
56042;BME280;48756;41.374;2.066;2022-09-20T15:53:52;101029.28;;;26.11;57.66
56042;BME280;48756;41.374;2.066;2022-09-20T15:56:22;101037.25;;;25.99;58.53
56042;BME280;48756;41.374;2.066;2022-09-20T15:58:53;101037.66;;;25.67;59.21
56042;BME280;48756;41.374;2.066;2022-09-20T16:01:36;101041.88;;;25.84;59.34
56042;BME280;48756;41.374;2.066;2022-09-20T16:06:35;101035.97;;;25.79;59.33
56042;BME280;48756;41.374;2.066;2022-09-20T16:09:00;101029.69;;;25.53;61.51
56042;BME280;48756;41.374;2.066;2022-09-20T16:11:26;101038.69;;;25.64;60.94
56042;BME280;48756;41.374;2.066;2022-09-20T16:13:57;101042.91;;;25.54;61.43
56042;BME280;48756;41.374;2.066;2022-09-20T16:16:24;101042.91;;;25.69;61.18
56042;BME280;48756;41.374;2.066;2022-09-20T16:18:50;101045.38;;;25.45;61.00
56042;BME280;48756;41.374;2.066;2022-09-20T16:21:36;101039.72;;;25.49;62.01
56042;BME280;48756;41.374;2.066;2022-09-20T16:24:04;101047.19;;;25.57;61.27
56042;BME280;48756;41.374;2.066;2022-09-20T16:26:31;101048.13;;;25.70;60.62
56042;BME280;48756;41.374;2.066;2022-09-20T16:28:58;101045.47;;;25.56;60.79
56042;BME280;48756;41.374;2.066;2022-09-20T16:31:41;101051.25;;;25.50;61.36
56042;BME280;48756;41.374;2.066;2022-09-20T16:36:41;101043.22;;;25.77;60.76
56042;BME280;48756;41.374;2.066;2022-09-20T16:39:08;101045.47;;;25.56;61.46
56042;BME280;48756;41.374;2.066;2022-09-20T16:41:34;101047.72;;;25.49;61.42
56042;BME280;48756;41.374;2.066;2022-09-20T16:44:00;101050.16;;;25.13;62.57
56042;BME280;48756;41.374;2.066;2022-09-20T16:46:26;101060.13;;;25.23;63.14
56042;BME280;48756;41.374;2.066;2022-09-20T16:48:52;101062.28;;;25.31;62.43
56042;BME280;48756;41.374;2.066;2022-09-20T16:51:30;101058.66;;;25.32;63.14
56042;BME280;48756;41.374;2.066;2022-09-20T16:53:59;101066.19;;;25.25;63.47
56042;BME280;48756;41.374;2.066;2022-09-20T16:56:28;101069.06;;;25.22;62.99
56042;BME280;48756;41.374;2.066;2022-09-20T16:59:01;101068.13;;;25.23;63.52
56042;BME280;48756;41.374;2.066;2022-09-20T17:01:28;101071.84;;;25.21;64.83
56042;BME280;48756;41.374;2.066;2022-09-20T17:03:54;101079.53;;;25.25;64.06
56042;BME280;48756;41.374;2.066;2022-09-20T17:06:21;101081.22;;;24.85;65.55
56042;BME280;48756;41.374;2.066;2022-09-20T17:08:46;101078.19;;;24.91;65.56
56042;BME280;48756;41.374;2.066;2022-09-20T17:11:16;101081.78;;;24.90;65.95
56042;BME280;48756;41.374;2.066;2022-09-20T17:13:43;101080.16;;;24.88;65.07
56042;BME280;48756;41.374;2.066;2022-09-20T17:16:13;101085.47;;;24.88;65.45
56042;BME280;48756;41.374;2.066;2022-09-20T17:18:39;101088.94;;;24.76;66.00
56042;BME280;48756;41.374;2.066;2022-09-20T17:21:10;101087.13;;;25.04;65.16
56042;BME280;48756;41.374;2.066;2022-09-20T17:23:38;101096.53;;;24.82;66.36
56042;BME280;48756;41.374;2.066;2022-09-20T17:26:11;101092.47;;;24.48;67.53
56042;BME280;48756;41.374;2.066;2022-09-20T17:28:39;101093.31;;;24.62;67.56
56042;BME280;48756;41.374;2.066;2022-09-20T17:31:06;101097.09;;;24.44;67.88
56042;BME280;48756;41.374;2.066;2022-09-20T17:33:33;101096.38;;;24.56;68.22
56042;BME280;48756;41.374;2.066;2022-09-20T17:36:00;101100.94;;;24.68;67.39
56042;BME280;48756;41.374;2.066;2022-09-20T17:38:27;101095.97;;;24.62;67.86
56042;BME280;48756;41.374;2.066;2022-09-20T17:41:21;101094.66;;;24.69;67.98
56042;BME280;48756;41.374;2.066;2022-09-20T17:43:50;101103.13;;;24.62;68.13
56042;BME280;48756;41.374;2.066;2022-09-20T17:46:21;101106.00;;;24.45;68.26
56042;BME280;48756;41.374;2.066;2022-09-20T17:49:00;101102.53;;;24.42;69.35
56042;BME280;48756;41.374;2.066;2022-09-20T17:51:38;101106.38;;;24.53;68.81
56042;BME280;48756;41.374;2.066;2022-09-20T17:54:05;101112.75;;;24.50;69.08
56042;BME280;48756;41.374;2.066;2022-09-20T17:56:31;101105.41;;;24.54;69.12
56042;BME280;48756;41.374;2.066;2022-09-20T17:58:58;101117.78;;;24.55;69.46
56042;BME280;48756;41.374;2.066;2022-09-20T18:01:25;101109.56;;;24.29;70.07
56042;BME280;48756;41.374;2.066;2022-09-20T18:03:52;101113.09;;;24.44;70.65
56042;BME280;48756;41.374;2.066;2022-09-20T18:06:28;101112.50;;;24.25;70.72
56042;BME280;48756;41.374;2.066;2022-09-20T18:08:59;101117.00;;;24.38;69.58